createdAt,value
2023-01-23T00:01:57.120Z,16.00
2023-01-23T00:04:30.853Z,16.65
2023-01-23T00:07:04.472Z,15.55
2023-01-23T00:09:37.840Z,17.17
2023-01-23T00:12:11.501Z,14.83
2023-01-23T00:14:45.415Z,13.40
2023-01-23T00:17:19.012Z,14.60
2023-01-23T00:19:55.281Z,15.98
2023-01-23T00:22:28.761Z,16.82
2023-01-23T00:25:02.265Z,17.07
2023-01-23T00:27:35.942Z,15.48
2023-01-23T00:30:13.799Z,17.52
2023-01-23T00:32:47.380Z,13.70
2023-01-23T00:35:21.058Z,15.18
2023-01-23T00:37:54.648Z,15.08
2023-01-23T00:40:27.995Z,17.67
2023-01-23T00:43:01.467Z,19.02
2023-01-23T00:45:35.968Z,18.57
2023-01-23T00:48:10.236Z,17.73
2023-01-23T00:50:44.066Z,19.75
2023-01-23T00:53:17.490Z,18.57
2023-01-23T00:55:51.040Z,19.70
2023-01-23T00:58:24.662Z,18.87
2023-01-23T01:00:58.264Z,20.55
2023-01-23T01:03:31.712Z,18.57
2023-01-23T01:06:05.409Z,19.45
2023-01-23T01:08:39.141Z,20.82
2023-01-23T01:11:12.526Z,20.92
2023-01-23T01:13:46.832Z,14.60
2023-01-23T01:16:20.646Z,17.95
2023-01-23T01:18:54.800Z,19.32
2023-01-23T01:21:28.625Z,19.48
2023-01-23T01:24:02.358Z,18.65
2023-01-23T01:26:36.136Z,17.17
2023-01-23T01:29:09.794Z,18.57
2023-01-23T01:31:43.287Z,21.55
2023-01-23T01:34:16.598Z,18.45
2023-01-23T01:36:50.203Z,18.50
2023-01-23T01:39:24.851Z,19.75
2023-01-23T01:41:58.475Z,19.73
2023-01-23T01:44:51.345Z,19.40
2023-01-23T01:47:24.777Z,16.10
2023-01-23T01:50:01.019Z,17.85
2023-01-23T01:52:35.182Z,18.83
2023-01-23T01:55:11.058Z,19.37
2023-01-23T01:57:48.374Z,17.57
2023-01-23T02:00:22.951Z,20.25
2023-01-23T02:02:59.086Z,19.90
2023-01-23T02:05:35.183Z,17.82
2023-01-23T02:08:13.308Z,19.73
2023-01-23T02:10:48.523Z,18.23
2023-01-23T02:13:28.287Z,18.77
2023-01-23T02:16:03.846Z,17.70
2023-01-23T02:18:41.544Z,19.57
2023-01-23T02:21:18.516Z,13.58
2023-01-23T02:24:00.382Z,16.40
2023-01-23T02:26:36.856Z,17.30
2023-01-23T02:29:11.410Z,13.22
2023-01-23T02:31:50.869Z,18.17
2023-01-23T02:34:26.194Z,18.52
2023-01-23T02:37:01.987Z,17.65
2023-01-23T02:39:35.513Z,16.10
2023-01-23T02:42:09.820Z,12.58
2023-01-23T02:44:52.596Z,16.15
2023-01-23T02:47:26.843Z,13.80
2023-01-23T02:50:01.674Z,13.32
2023-01-23T02:52:35.138Z,13.88
2023-01-23T02:55:11.181Z,11.73
2023-01-23T02:57:45.285Z,12.07
2023-01-23T03:00:22.497Z,14.10
2023-01-23T03:02:56.949Z,13.72
2023-01-23T03:05:30.722Z,11.88
2023-01-23T03:08:04.434Z,10.23
2023-01-23T03:10:38.131Z,13.75
2023-01-23T03:13:12.218Z,13.93
2023-01-23T03:15:45.743Z,11.48
2023-01-23T03:18:19.086Z,12.82
2023-01-23T03:20:52.469Z,11.40
2023-01-23T03:23:25.671Z,15.40
2023-01-23T03:26:00.734Z,14.05
2023-01-23T03:29:03.697Z,15.25
2023-01-23T03:31:37.236Z,13.68
2023-01-23T03:34:11.472Z,12.55
2023-01-23T03:36:45.081Z,15.08
2023-01-23T03:39:36.533Z,13.48
2023-01-23T03:42:09.886Z,13.55
2023-01-23T03:44:43.517Z,12.53
2023-01-23T03:47:17.137Z,8.83
2023-01-23T03:49:50.824Z,13.00
2023-01-23T03:52:25.065Z,13.53
2023-01-23T03:54:59.145Z,16.12
2023-01-23T03:57:33.905Z,12.37
2023-01-23T04:00:13.157Z,12.70
2023-01-23T04:02:51.220Z,11.25
2023-01-23T04:05:24.941Z,13.05
2023-01-23T04:07:58.539Z,13.55
2023-01-23T04:10:32.276Z,14.63
2023-01-23T04:13:07.826Z,14.18
2023-01-23T04:15:41.346Z,13.75
2023-01-23T04:18:15.020Z,15.35
2023-01-23T04:20:48.990Z,11.25
2023-01-23T04:23:23.109Z,11.93
2023-01-23T04:25:56.599Z,13.60
2023-01-23T04:28:30.119Z,12.33
2023-01-23T04:31:04.302Z,14.45
2023-01-23T04:33:39.547Z,16.75
2023-01-23T04:36:13.825Z,14.83
2023-01-23T04:38:47.395Z,14.83
2023-01-23T04:41:24.144Z,16.00
2023-01-23T04:44:02.350Z,15.50
2023-01-23T04:46:37.103Z,15.20
2023-01-23T04:49:12.141Z,10.80
2023-01-23T04:51:46.074Z,13.08
2023-01-23T04:54:20.814Z,12.05
2023-01-23T04:56:54.176Z,14.18
2023-01-23T04:59:27.892Z,13.65
2023-01-23T05:02:02.494Z,14.80
2023-01-23T05:04:37.748Z,16.87
2023-01-23T05:07:12.432Z,13.13
2023-01-23T05:09:47.508Z,15.55
2023-01-23T05:12:21.320Z,13.75
2023-01-23T05:14:54.867Z,14.23
2023-01-23T05:17:28.352Z,14.20
2023-01-23T05:20:01.515Z,13.93
2023-01-23T05:22:34.934Z,15.08
2023-01-23T05:25:10.389Z,13.25
2023-01-23T05:27:44.522Z,16.35
2023-01-23T05:30:20.026Z,15.28
2023-01-23T05:32:55.350Z,15.27
2023-01-23T05:35:28.937Z,15.65
2023-01-23T05:38:03.555Z,14.98
2023-01-23T05:40:37.827Z,16.12
2023-01-23T05:43:21.735Z,15.00
2023-01-23T05:46:09.056Z,14.85
2023-01-23T05:48:44.004Z,15.45
2023-01-23T05:51:17.655Z,14.75
2023-01-23T05:53:51.193Z,14.87
2023-01-23T05:56:24.655Z,14.60
2023-01-23T05:59:12.365Z,12.58
2023-01-23T06:01:47.338Z,14.50
2023-01-23T06:04:38.911Z,14.58
2023-01-23T06:07:17.854Z,12.50
2023-01-23T06:09:51.669Z,15.18
2023-01-23T06:12:26.013Z,13.80
2023-01-23T06:14:59.499Z,15.32
2023-01-23T06:17:34.007Z,14.03
2023-01-23T06:20:09.354Z,16.40
2023-01-23T06:22:44.608Z,14.93
2023-01-23T06:25:21.425Z,15.18
2023-01-23T06:27:55.334Z,16.73
2023-01-23T06:30:30.735Z,15.43
2023-01-23T06:33:04.528Z,15.28
2023-01-23T06:35:39.569Z,14.03
2023-01-23T06:38:13.150Z,14.30
2023-01-23T06:40:47.620Z,16.27
2023-01-23T06:43:25.450Z,14.35
2023-01-23T06:45:59.716Z,16.70
2023-01-23T06:48:33.182Z,14.93
2023-01-23T06:51:07.613Z,15.28
2023-01-23T06:53:41.134Z,15.75
2023-01-23T06:56:15.540Z,10.63
2023-01-23T06:58:49.759Z,14.53
2023-01-23T07:01:26.591Z,11.93
2023-01-23T07:04:17.845Z,13.62
2023-01-23T07:06:53.111Z,12.78
2023-01-23T07:09:26.893Z,10.08
2023-01-23T07:12:04.708Z,16.45
2023-01-23T07:14:39.016Z,13.25
2023-01-23T07:17:14.199Z,13.28
2023-01-23T07:19:47.798Z,12.65
2023-01-23T07:22:23.761Z,14.75
2023-01-23T07:24:57.511Z,16.35
2023-01-23T07:27:31.157Z,12.82
2023-01-23T07:30:06.028Z,15.23
2023-01-23T07:32:39.502Z,11.57
2023-01-23T07:35:13.641Z,15.25
2023-01-23T07:37:47.054Z,16.20
2023-01-23T07:40:21.448Z,14.65
2023-01-23T07:42:55.154Z,10.72
2023-01-23T07:45:28.834Z,12.35
2023-01-23T07:48:02.386Z,15.15
2023-01-23T07:50:37.820Z,15.88
2023-01-23T07:53:11.739Z,13.90
2023-01-23T07:55:45.578Z,13.88
2023-01-23T07:58:19.029Z,14.73
2023-01-23T08:00:52.586Z,11.25
2023-01-23T08:03:28.163Z,13.83
2023-01-23T08:06:02.324Z,11.88
2023-01-23T08:08:36.107Z,13.48
2023-01-23T08:11:12.028Z,13.30
2023-01-23T08:16:37.520Z,13.95
2023-01-23T08:19:11.194Z,14.00
2023-01-23T08:21:45.575Z,13.70
2023-01-23T08:24:19.113Z,12.95
2023-01-23T08:26:53.057Z,13.03
2023-01-23T08:29:26.633Z,13.28
2023-01-23T08:32:00.832Z,10.55
2023-01-23T08:34:34.422Z,12.25
2023-01-23T08:37:07.975Z,13.65
2023-01-23T08:39:42.162Z,10.08
2023-01-23T08:42:15.510Z,7.60
2023-01-23T08:44:49.016Z,10.35
2023-01-23T08:47:22.617Z,7.80
2023-01-23T08:49:55.956Z,11.55
2023-01-23T08:52:29.662Z,11.93
2023-01-23T08:55:05.078Z,13.48
2023-01-23T08:57:37.922Z,12.47
2023-01-23T09:02:52.580Z,11.60
2023-01-23T09:05:26.033Z,12.80
2023-01-23T09:08:00.548Z,12.18
2023-01-23T09:10:34.074Z,13.35
2023-01-23T09:13:07.747Z,11.75
2023-01-23T09:15:42.219Z,11.05
2023-01-23T09:18:15.852Z,8.95
2023-01-23T09:20:49.655Z,14.07
2023-01-23T09:23:23.614Z,11.88
2023-01-23T09:25:56.887Z,11.10
2023-01-23T09:28:30.538Z,10.95
2023-01-23T09:31:07.985Z,14.63
2023-01-23T09:33:41.936Z,11.97
2023-01-23T09:36:15.605Z,14.03
2023-01-23T09:38:50.752Z,14.13
2023-01-23T09:41:28.344Z,13.13
2023-01-23T09:46:39.572Z,14.03
2023-01-23T09:49:16.805Z,15.10
2023-01-23T09:51:54.660Z,9.90
2023-01-23T09:54:40.940Z,13.72
2023-01-23T09:57:21.103Z,11.83
2023-01-23T09:59:59.946Z,12.30
2023-01-23T10:02:35.687Z,11.33
2023-01-23T10:05:14.022Z,10.32
2023-01-23T10:07:53.959Z,12.15
2023-01-23T10:10:52.209Z,12.30
2023-01-23T10:13:37.812Z,10.60
2023-01-23T10:16:19.372Z,10.53
2023-01-23T10:18:57.112Z,12.33
2023-01-23T10:24:08.587Z,13.35
2023-01-23T10:29:18.692Z,10.70
2023-01-23T10:31:55.909Z,10.20
2023-01-23T10:34:34.941Z,12.98
2023-01-23T10:37:15.257Z,10.30
2023-01-23T10:39:52.205Z,8.20
2023-01-23T10:42:28.293Z,10.17
2023-01-23T10:45:01.716Z,11.83
2023-01-23T10:47:38.826Z,14.18
2023-01-23T10:52:47.855Z,12.85
2023-01-23T10:55:32.562Z,12.73
2023-01-23T10:58:07.045Z,10.58
2023-01-23T11:03:34.561Z,11.60
2023-01-23T11:06:09.882Z,13.15
2023-01-23T11:08:46.668Z,14.03
2023-01-23T11:11:26.657Z,14.57
2023-01-23T11:14:10.586Z,13.50
2023-01-23T11:16:44.759Z,14.68
2023-01-23T11:19:22.952Z,12.58
2023-01-23T11:21:59.224Z,11.22
2023-01-23T11:24:40.697Z,14.73
2023-01-23T11:27:23.754Z,10.23
2023-01-23T11:30:16.584Z,13.62
2023-01-23T11:32:55.512Z,15.03
2023-01-23T11:35:33.344Z,14.40
2023-01-23T11:38:07.845Z,12.43
2023-01-23T11:40:41.368Z,17.55
2023-01-23T11:43:17.865Z,13.53
2023-01-23T11:46:01.910Z,14.00
2023-01-23T11:49:00.464Z,15.38
2023-01-23T11:51:38.672Z,14.20
2023-01-23T11:54:19.150Z,14.60
2023-01-23T11:57:04.450Z,16.93
2023-01-23T12:03:30.341Z,13.20
2023-01-23T12:06:21.258Z,15.63
2023-01-23T12:08:58.680Z,18.73
2023-01-23T12:11:35.979Z,19.98
2023-01-23T12:14:16.471Z,15.50
2023-01-23T12:23:28.093Z,16.52
2023-01-23T12:26:07.226Z,14.40
2023-01-23T12:28:56.205Z,16.93
2023-01-23T12:31:41.354Z,14.55
2023-01-23T12:34:53.828Z,15.65
2023-01-23T12:37:47.916Z,12.68
2023-01-23T12:40:24.724Z,13.85
2023-01-23T12:43:01.862Z,11.40
2023-01-23T12:45:35.825Z,12.85
2023-01-23T12:48:12.927Z,15.65
2023-01-23T12:50:49.496Z,12.53
2023-01-23T12:53:24.387Z,13.48
2023-01-23T12:56:02.136Z,15.35
2023-01-23T13:01:16.981Z,16.27
2023-01-23T13:04:08.502Z,15.65
2023-01-23T13:07:12.575Z,12.88
2023-01-23T13:09:53.796Z,15.00
2023-01-23T13:12:29.862Z,15.32
2023-01-23T13:15:39.622Z,14.55
2023-01-23T13:18:06.521Z,14.93
2023-01-23T13:21:00.146Z,15.48
2023-01-23T13:23:35.359Z,15.10
2023-01-23T13:29:48.183Z,16.65
2023-01-23T13:32:24.744Z,12.15
2023-01-23T13:34:58.531Z,14.47
2023-01-23T13:37:53.437Z,16.45
2023-01-23T13:40:27.791Z,15.18
2023-01-23T13:43:02.655Z,9.05
2023-01-23T13:45:36.996Z,14.73
2023-01-23T13:49:05.903Z,13.13
2023-01-23T13:51:40.073Z,12.65
2023-01-23T13:54:35.533Z,12.30
2023-01-23T13:57:09.396Z,13.88
2023-01-23T13:59:46.816Z,11.05
2023-01-23T14:02:44.442Z,13.78
2023-01-23T14:05:22.588Z,11.35
2023-01-23T14:08:02.693Z,12.05
2023-01-23T14:10:37.691Z,11.15
2023-01-23T14:13:13.357Z,10.15
2023-01-23T14:16:09.583Z,13.15
2023-01-23T14:18:48.960Z,12.90
2023-01-23T14:21:30.415Z,13.38
2023-01-23T14:24:04.071Z,12.60
2023-01-23T14:26:37.958Z,13.93
2023-01-23T14:29:22.391Z,14.33
2023-01-23T14:31:56.202Z,13.98
2023-01-23T14:34:30.222Z,11.25
2023-01-23T14:37:06.203Z,13.98
2023-01-23T14:39:44.018Z,13.08
2023-01-23T14:42:23.679Z,13.03
2023-01-23T14:44:58.240Z,14.18
2023-01-23T14:47:35.270Z,13.70
2023-01-23T14:50:12.066Z,14.35
2023-01-23T14:52:45.534Z,10.28
2023-01-23T14:55:30.150Z,11.30
2023-01-23T14:58:05.172Z,11.00
2023-01-23T15:00:39.677Z,10.43
2023-01-23T15:03:17.233Z,12.18
2023-01-23T15:06:00.220Z,10.88
2023-01-23T15:08:36.176Z,13.28
2023-01-23T15:11:12.328Z,13.43
2023-01-23T15:13:50.560Z,13.15
2023-01-23T15:16:26.374Z,12.25
2023-01-23T15:19:05.533Z,12.45
2023-01-23T15:21:41.092Z,12.05
2023-01-23T15:24:24.657Z,13.30
2023-01-23T15:27:08.813Z,10.85
2023-01-23T15:29:42.296Z,11.40
2023-01-23T15:32:22.698Z,10.53
2023-01-23T15:34:59.307Z,11.90
2023-01-23T15:37:34.738Z,11.75
2023-01-23T15:40:19.657Z,9.60
2023-01-23T15:43:08.180Z,11.12
2023-01-23T15:45:41.705Z,9.88
2023-01-23T15:48:15.061Z,8.80
2023-01-23T15:50:48.807Z,9.15
2023-01-23T15:53:22.102Z,7.87
2023-01-23T15:55:55.501Z,10.20
2023-01-23T15:58:29.021Z,9.78
2023-01-23T16:01:02.433Z,7.35
2023-01-23T16:03:35.945Z,9.13
2023-01-23T16:06:14.972Z,7.20
2023-01-23T16:08:55.049Z,8.90
2023-01-23T16:11:23.633Z,9.93
2023-01-23T16:13:56.909Z,7.00
2023-01-23T16:16:31.217Z,7.50
2023-01-23T16:19:04.686Z,7.22
2023-01-23T16:21:38.029Z,10.63
2023-01-23T16:24:18.452Z,6.42
2023-01-23T16:26:54.428Z,8.78
2023-01-23T16:29:30.123Z,8.80
2023-01-23T16:32:04.876Z,9.85
2023-01-23T16:34:38.391Z,8.33
2023-01-23T16:37:16.583Z,8.93
2023-01-23T16:39:50.029Z,9.55
2023-01-23T16:42:25.180Z,8.30
2023-01-23T16:44:58.827Z,10.95
2023-01-23T16:47:33.890Z,9.38
2023-01-23T16:50:10.994Z,8.73
2023-01-23T16:52:46.881Z,8.03
2023-01-23T16:55:23.982Z,12.10
2023-01-23T16:57:59.332Z,9.73
2023-01-23T17:00:34.990Z,8.80
2023-01-23T17:03:10.423Z,12.68
2023-01-23T17:05:43.678Z,12.85
2023-01-23T17:08:21.004Z,9.83
2023-01-23T17:10:57.380Z,11.68
2023-01-23T17:13:34.037Z,9.18
2023-01-23T17:16:25.413Z,11.88
2023-01-23T17:18:44.959Z,9.18
2023-01-23T17:21:21.676Z,11.70
2023-01-23T17:23:56.218Z,7.62
2023-01-23T17:26:29.588Z,11.35
2023-01-23T17:29:03.893Z,13.48
2023-01-23T17:31:37.974Z,12.28
2023-01-23T17:34:16.234Z,11.80
2023-01-23T17:36:50.015Z,12.30
2023-01-23T17:39:23.607Z,11.95
2023-01-23T17:41:57.341Z,12.75
2023-01-23T17:44:30.799Z,11.45
2023-01-23T17:47:04.648Z,10.32
2023-01-23T17:49:38.375Z,12.93
2023-01-23T17:52:14.591Z,11.50
2023-01-23T17:54:47.914Z,12.80
2023-01-23T17:57:21.286Z,10.98
2023-01-23T17:59:56.510Z,10.28
2023-01-23T18:02:30.505Z,10.85
2023-01-23T18:05:05.289Z,7.00
2023-01-23T18:07:52.156Z,7.50
2023-01-23T18:10:15.018Z,8.43
2023-01-23T18:12:51.893Z,10.35
2023-01-23T18:15:30.647Z,12.67
2023-01-23T18:18:12.634Z,9.68
2023-01-23T18:20:47.316Z,6.92
2023-01-23T18:23:21.841Z,8.48
2023-01-23T18:25:59.103Z,8.30
2023-01-23T18:28:35.492Z,10.30
2023-01-23T18:31:11.698Z,9.23
2023-01-23T18:33:55.435Z,7.70
2023-01-23T18:36:35.410Z,9.28
2023-01-23T18:39:35.757Z,11.95
2023-01-23T18:42:21.021Z,10.43
2023-01-23T18:44:57.741Z,10.40
2023-01-23T18:47:32.163Z,9.13
2023-01-23T18:50:07.602Z,11.85
2023-01-23T18:52:47.655Z,8.33
2023-01-23T18:55:28.467Z,10.53
2023-01-23T18:58:28.738Z,10.48
2023-01-23T19:01:05.615Z,9.25
2023-01-23T19:03:42.314Z,9.05
2023-01-23T19:06:22.367Z,12.10
2023-01-23T19:08:57.144Z,10.70
2023-01-23T19:11:35.375Z,10.82
2023-01-23T19:14:14.555Z,10.78
2023-01-23T19:16:51.186Z,10.78
2023-01-23T19:19:27.874Z,9.55
2023-01-23T19:22:04.476Z,11.33
2023-01-23T19:24:41.178Z,10.20
2023-01-23T19:27:20.278Z,8.60
2023-01-23T19:29:55.061Z,9.18
2023-01-23T19:32:29.615Z,7.90
2023-01-23T19:35:13.754Z,9.45
2023-01-23T19:37:39.947Z,8.65
2023-01-23T19:40:16.635Z,9.33
2023-01-23T19:42:58.644Z,9.30
2023-01-23T19:45:25.706Z,7.55
2023-01-23T19:47:59.219Z,9.58
2023-01-23T19:50:32.791Z,10.45
2023-01-23T19:53:06.700Z,10.80
2023-01-23T19:55:40.302Z,10.00
2023-01-23T19:58:14.196Z,9.80
2023-01-23T20:00:48.094Z,7.97
2023-01-23T20:03:21.822Z,10.58
2023-01-23T20:05:55.891Z,9.55
2023-01-23T20:08:29.348Z,11.50
2023-01-23T20:11:02.854Z,10.72
2023-01-23T20:13:36.285Z,10.98
2023-01-23T20:16:18.180Z,9.93
2023-01-23T20:18:53.625Z,12.68
2023-01-23T20:21:27.877Z,10.63
2023-01-23T20:24:01.433Z,13.53
2023-01-23T20:26:34.753Z,11.75
2023-01-23T20:29:10.261Z,14.10
2023-01-23T20:31:43.630Z,13.30
2023-01-23T20:34:16.968Z,14.98
2023-01-23T20:36:50.637Z,12.73
2023-01-23T20:39:24.265Z,11.90
2023-01-23T20:41:57.659Z,12.90
2023-01-23T20:44:31.378Z,10.53
2023-01-23T20:47:04.852Z,10.35
2023-01-23T20:49:38.449Z,12.75
2023-01-23T20:52:29.771Z,12.05
2023-01-23T20:55:03.286Z,14.47
2023-01-23T20:57:54.097Z,13.58
2023-01-23T21:00:27.825Z,10.15
2023-01-23T21:03:01.318Z,13.18
2023-01-23T21:05:34.987Z,11.68
2023-01-23T21:08:09.548Z,13.35
2023-01-23T21:10:43.283Z,9.10
2023-01-23T21:13:16.925Z,10.93
2023-01-23T21:16:00.747Z,12.78
2023-01-23T21:18:35.847Z,11.93
2023-01-23T21:21:12.214Z,12.95
2023-01-23T21:23:48.320Z,10.82
2023-01-23T21:26:23.432Z,9.83
2023-01-23T21:28:58.652Z,13.35
2023-01-23T21:31:34.101Z,11.93
2023-01-23T21:34:09.735Z,10.48
2023-01-23T21:36:45.269Z,11.25
2023-01-23T21:39:19.497Z,12.45
2023-01-23T21:41:53.079Z,11.12
2023-01-23T21:44:26.537Z,12.93
2023-01-23T21:47:00.141Z,11.12
2023-01-23T21:49:33.986Z,13.68
2023-01-23T21:52:08.074Z,13.22
2023-01-23T21:54:43.216Z,13.58
2023-01-23T21:57:16.687Z,8.48
2023-01-23T22:00:09.129Z,11.33
2023-01-23T22:02:44.708Z,11.68
2023-01-23T22:05:19.069Z,12.03
2023-01-23T22:07:52.830Z,10.23
2023-01-23T22:10:26.302Z,10.80
2023-01-23T22:12:59.636Z,11.73
2023-01-23T22:15:33.298Z,10.30
2023-01-23T22:18:06.922Z,10.95
2023-01-23T22:20:41.224Z,14.07
2023-01-23T22:23:14.796Z,14.18
2023-01-23T22:25:49.424Z,10.35
2023-01-23T22:28:23.336Z,9.48
2023-01-23T22:30:57.259Z,11.50
2023-01-23T22:33:40.166Z,8.38
2023-01-23T22:36:08.619Z,11.28
2023-01-23T22:38:42.101Z,13.10
2023-01-23T22:41:17.090Z,11.33
2023-01-23T22:43:55.180Z,12.33
2023-01-23T22:46:29.404Z,12.47
2023-01-23T22:49:02.777Z,11.97
2023-01-23T22:51:36.134Z,12.07
2023-01-23T22:54:09.552Z,12.47
2023-01-23T22:56:44.254Z,9.85
2023-01-23T22:59:17.603Z,9.53
2023-01-23T23:01:50.984Z,11.63
2023-01-23T23:04:24.397Z,10.90
2023-01-23T23:06:57.790Z,13.40
2023-01-23T23:09:31.527Z,11.43
2023-01-23T23:12:05.337Z,10.05
2023-01-23T23:14:39.867Z,11.83
2023-01-23T23:17:13.277Z,7.70
2023-01-23T23:19:46.690Z,10.55
2023-01-23T23:22:20.320Z,8.93
2023-01-23T23:24:53.661Z,10.65
2023-01-23T23:27:27.125Z,10.70
2023-01-23T23:30:00.818Z,9.50
2023-01-23T23:32:34.495Z,8.68
2023-01-23T23:35:10.416Z,8.08
2023-01-23T23:37:43.916Z,10.38
2023-01-23T23:40:18.038Z,12.00
2023-01-23T23:42:51.564Z,9.15
2023-01-23T23:45:25.319Z,10.60
2023-01-23T23:47:59.025Z,10.15
2023-01-23T23:50:33.350Z,10.32
2023-01-23T23:53:06.876Z,8.70
2023-01-23T23:55:40.402Z,9.90
2023-01-23T23:58:14.378Z,11.38
